sensor_id;sensor_type;location;lat;lon;timestamp;temperature;humidity
65034;DHT22;51601;51.356;12.458;2023-03-23T00:04:09;13.40;63.00
65034;DHT22;51601;51.356;12.458;2023-03-23T00:08:37;13.30;63.10
65034;DHT22;51601;51.356;12.458;2023-03-23T00:13:06;13.30;63.20
65034;DHT22;51601;51.356;12.458;2023-03-23T00:17:29;13.30;63.30
65034;DHT22;51601;51.356;12.458;2023-03-23T00:21:54;13.20;63.40
65034;DHT22;51601;51.356;12.458;2023-03-23T00:26:18;13.20;63.50
65034;DHT22;51601;51.356;12.458;2023-03-23T00:30:42;13.20;63.50
65034;DHT22;51601;51.356;12.458;2023-03-23T00:35:00;13.20;63.50
65034;DHT22;51601;51.356;12.458;2023-03-23T00:39:26;13.20;63.40
65034;DHT22;51601;51.356;12.458;2023-03-23T00:43:52;13.20;63.30
65034;DHT22;51601;51.356;12.458;2023-03-23T00:48:15;13.20;63.20
65034;DHT22;51601;51.356;12.458;2023-03-23T00:52:38;13.20;63.30
65034;DHT22;51601;51.356;12.458;2023-03-23T00:57:01;13.10;63.50
65034;DHT22;51601;51.356;12.458;2023-03-23T01:01:25;13.10;63.70
65034;DHT22;51601;51.356;12.458;2023-03-23T01:05:48;13.10;63.90
65034;DHT22;51601;51.356;12.458;2023-03-23T01:10:13;13.10;64.20
65034;DHT22;51601;51.356;12.458;2023-03-23T01:14:39;13.00;64.40
65034;DHT22;51601;51.356;12.458;2023-03-23T01:19:03;12.90;64.50
65034;DHT22;51601;51.356;12.458;2023-03-23T01:23:26;12.90;64.90
65034;DHT22;51601;51.356;12.458;2023-03-23T01:27:49;12.80;64.80
65034;DHT22;51601;51.356;12.458;2023-03-23T01:32:08;12.80;64.80
65034;DHT22;51601;51.356;12.458;2023-03-23T01:36:32;12.80;64.80
65034;DHT22;51601;51.356;12.458;2023-03-23T01:40:57;12.80;64.90
65034;DHT22;51601;51.356;12.458;2023-03-23T01:45:30;12.70;64.90
65034;DHT22;51601;51.356;12.458;2023-03-23T01:49:53;12.70;64.90
65034;DHT22;51601;51.356;12.458;2023-03-23T01:54:18;12.70;64.90
65034;DHT22;51601;51.356;12.458;2023-03-23T01:58:44;12.60;64.90
65034;DHT22;51601;51.356;12.458;2023-03-23T02:03:07;12.60;64.80
65034;DHT22;51601;51.356;12.458;2023-03-23T02:07:31;12.60;64.80
65034;DHT22;51601;51.356;12.458;2023-03-23T02:11:58;12.60;64.80
65034;DHT22;51601;51.356;12.458;2023-03-23T02:16:27;12.60;64.80
65034;DHT22;51601;51.356;12.458;2023-03-23T02:26:01;12.60;65.00
65034;DHT22;51601;51.356;12.458;2023-03-23T02:30:48;12.50;64.80
65034;DHT22;51601;51.356;12.458;2023-03-23T02:35:18;12.60;64.80
65034;DHT22;51601;51.356;12.458;2023-03-23T02:39:45;12.60;64.70
65034;DHT22;51601;51.356;12.458;2023-03-23T02:44:10;12.60;64.70
65034;DHT22;51601;51.356;12.458;2023-03-23T02:48:35;12.70;64.80
65034;DHT22;51601;51.356;12.458;2023-03-23T02:53:00;12.60;64.70
65034;DHT22;51601;51.356;12.458;2023-03-23T02:57:24;12.60;64.60
65034;DHT22;51601;51.356;12.458;2023-03-23T03:02:05;12.70;64.50
65034;DHT22;51601;51.356;12.458;2023-03-23T03:06:34;12.70;64.50
65034;DHT22;51601;51.356;12.458;2023-03-23T03:11:06;12.70;64.50
65034;DHT22;51601;51.356;12.458;2023-03-23T03:15:36;12.70;64.60
65034;DHT22;51601;51.356;12.458;2023-03-23T03:20:02;12.70;64.80
65034;DHT22;51601;51.356;12.458;2023-03-23T03:24:29;12.70;64.80
65034;DHT22;51601;51.356;12.458;2023-03-23T03:28:54;12.70;64.80
65034;DHT22;51601;51.356;12.458;2023-03-23T03:33:18;12.80;64.80
65034;DHT22;51601;51.356;12.458;2023-03-23T03:37:43;12.80;64.80
65034;DHT22;51601;51.356;12.458;2023-03-23T03:42:06;12.80;64.80
65034;DHT22;51601;51.356;12.458;2023-03-23T03:46:30;12.80;64.70
65034;DHT22;51601;51.356;12.458;2023-03-23T03:50:54;12.90;64.60
65034;DHT22;51601;51.356;12.458;2023-03-23T03:55:18;12.90;64.50
65034;DHT22;51601;51.356;12.458;2023-03-23T03:59:43;13.00;64.50
65034;DHT22;51601;51.356;12.458;2023-03-23T04:04:26;13.00;64.40
65034;DHT22;51601;51.356;12.458;2023-03-23T04:08:49;13.00;64.10
65034;DHT22;51601;51.356;12.458;2023-03-23T04:13:13;13.10;64.00
65034;DHT22;51601;51.356;12.458;2023-03-23T04:17:53;13.20;63.80
65034;DHT22;51601;51.356;12.458;2023-03-23T04:22:20;13.20;63.60
65034;DHT22;51601;51.356;12.458;2023-03-23T04:26:46;13.20;63.40
65034;DHT22;51601;51.356;12.458;2023-03-23T04:31:16;13.30;63.40
65034;DHT22;51601;51.356;12.458;2023-03-23T04:35:45;13.30;63.40
65034;DHT22;51601;51.356;12.458;2023-03-23T04:40:18;13.30;63.40
65034;DHT22;51601;51.356;12.458;2023-03-23T04:44:52;13.30;63.30
65034;DHT22;51601;51.356;12.458;2023-03-23T04:49:23;13.30;63.30
65034;DHT22;51601;51.356;12.458;2023-03-23T04:53:54;13.40;63.30
65034;DHT22;51601;51.356;12.458;2023-03-23T04:58:20;13.40;63.30
65034;DHT22;51601;51.356;12.458;2023-03-23T05:03:04;13.40;63.30
65034;DHT22;51601;51.356;12.458;2023-03-23T05:07:28;13.40;63.40
65034;DHT22;51601;51.356;12.458;2023-03-23T05:11:51;13.40;63.50
65034;DHT22;51601;51.356;12.458;2023-03-23T05:16:17;13.40;63.60
65034;DHT22;51601;51.356;12.458;2023-03-23T05:20:40;13.40;63.90
65034;DHT22;51601;51.356;12.458;2023-03-23T05:25:10;13.40;64.10
65034;DHT22;51601;51.356;12.458;2023-03-23T05:29:40;13.40;64.40
65034;DHT22;51601;51.356;12.458;2023-03-23T05:34:05;13.30;64.70
65034;DHT22;51601;51.356;12.458;2023-03-23T05:38:41;13.30;65.00
65034;DHT22;51601;51.356;12.458;2023-03-23T05:43:07;13.20;65.40
65034;DHT22;51601;51.356;12.458;2023-03-23T05:47:41;13.20;66.50
65034;DHT22;51601;51.356;12.458;2023-03-23T05:52:14;13.10;67.00
65034;DHT22;51601;51.356;12.458;2023-03-23T05:56:38;13.10;67.70
65034;DHT22;51601;51.356;12.458;2023-03-23T06:01:14;13.00;68.00
65034;DHT22;51601;51.356;12.458;2023-03-23T06:05:42;13.00;68.20
65034;DHT22;51601;51.356;12.458;2023-03-23T06:10:09;13.00;68.50
65034;DHT22;51601;51.356;12.458;2023-03-23T06:14:34;13.00;68.70
65034;DHT22;51601;51.356;12.458;2023-03-23T06:18:57;13.00;68.80
65034;DHT22;51601;51.356;12.458;2023-03-23T06:23:28;13.00;69.00
65034;DHT22;51601;51.356;12.458;2023-03-23T06:27:53;13.00;69.60
65034;DHT22;51601;51.356;12.458;2023-03-23T06:32:16;13.00;70.00
65034;DHT22;51601;51.356;12.458;2023-03-23T06:36:40;13.10;70.80
65034;DHT22;51601;51.356;12.458;2023-03-23T06:41:12;13.10;72.00
65034;DHT22;51601;51.356;12.458;2023-03-23T06:45:36;13.10;72.70
65034;DHT22;51601;51.356;12.458;2023-03-23T06:50:32;13.00;73.00
65034;DHT22;51601;51.356;12.458;2023-03-23T06:54:57;13.00;73.30
65034;DHT22;51601;51.356;12.458;2023-03-23T06:59:20;13.00;73.70
65034;DHT22;51601;51.356;12.458;2023-03-23T07:03:45;12.90;74.10
65034;DHT22;51601;51.356;12.458;2023-03-23T07:08:12;13.00;74.40
65034;DHT22;51601;51.356;12.458;2023-03-23T07:12:47;13.00;74.30
65034;DHT22;51601;51.356;12.458;2023-03-23T07:17:10;13.00;74.30
65034;DHT22;51601;51.356;12.458;2023-03-23T07:21:45;13.10;74.10
65034;DHT22;51601;51.356;12.458;2023-03-23T07:26:09;13.20;73.50
65034;DHT22;51601;51.356;12.458;2023-03-23T07:30:42;13.20;73.60
65034;DHT22;51601;51.356;12.458;2023-03-23T07:35:07;13.20;73.60
65034;DHT22;51601;51.356;12.458;2023-03-23T07:39:42;13.30;73.70
65034;DHT22;51601;51.356;12.458;2023-03-23T07:44:06;13.30;74.00
65034;DHT22;51601;51.356;12.458;2023-03-23T07:48:30;13.40;74.20
65034;DHT22;51601;51.356;12.458;2023-03-23T07:52:54;13.40;74.40
65034;DHT22;51601;51.356;12.458;2023-03-23T07:57:20;13.40;74.50
65034;DHT22;51601;51.356;12.458;2023-03-23T08:01:47;13.40;74.40
65034;DHT22;51601;51.356;12.458;2023-03-23T08:06:24;13.40;74.50
65034;DHT22;51601;51.356;12.458;2023-03-23T08:11:07;13.40;74.70
65034;DHT22;51601;51.356;12.458;2023-03-23T08:15:46;13.50;75.20
65034;DHT22;51601;51.356;12.458;2023-03-23T08:20:28;13.60;75.60
65034;DHT22;51601;51.356;12.458;2023-03-23T08:25:00;13.70;75.60
65034;DHT22;51601;51.356;12.458;2023-03-23T08:29:38;13.80;75.90
65034;DHT22;51601;51.356;12.458;2023-03-23T08:34:22;13.90;76.50
65034;DHT22;51601;51.356;12.458;2023-03-23T08:39:06;14.00;76.50
65034;DHT22;51601;51.356;12.458;2023-03-23T08:44:04;13.90;77.00
65034;DHT22;51601;51.356;12.458;2023-03-23T08:48:49;13.90;77.70
65034;DHT22;51601;51.356;12.458;2023-03-23T08:53:32;13.90;78.30
65034;DHT22;51601;51.356;12.458;2023-03-23T08:58:21;14.00;79.10
65034;DHT22;51601;51.356;12.458;2023-03-23T09:03:04;14.30;80.00
65034;DHT22;51601;51.356;12.458;2023-03-23T09:07:45;14.80;78.40
65034;DHT22;51601;51.356;12.458;2023-03-23T09:12:10;15.30;76.40
65034;DHT22;51601;51.356;12.458;2023-03-23T09:16:33;15.80;74.50
65034;DHT22;51601;51.356;12.458;2023-03-23T09:20:56;16.10;72.00
65034;DHT22;51601;51.356;12.458;2023-03-23T09:25:21;16.50;69.10
65034;DHT22;51601;51.356;12.458;2023-03-23T09:29:45;16.90;67.10
65034;DHT22;51601;51.356;12.458;2023-03-23T09:34:10;17.30;65.40
65034;DHT22;51601;51.356;12.458;2023-03-23T09:38:33;17.70;63.80
65034;DHT22;51601;51.356;12.458;2023-03-23T09:43:07;17.80;63.20
65034;DHT22;51601;51.356;12.458;2023-03-23T09:47:41;17.90;62.80
65034;DHT22;51601;51.356;12.458;2023-03-23T09:52:09;17.80;61.50
65034;DHT22;51601;51.356;12.458;2023-03-23T09:56:33;17.60;61.70
65034;DHT22;51601;51.356;12.458;2023-03-23T10:01:00;17.60;61.60
65034;DHT22;51601;51.356;12.458;2023-03-23T10:05:32;17.40;61.10
65034;DHT22;51601;51.356;12.458;2023-03-23T10:09:59;17.30;61.20
65034;DHT22;51601;51.356;12.458;2023-03-23T10:14:44;17.20;61.60
65034;DHT22;51601;51.356;12.458;2023-03-23T10:19:12;17.10;61.70
65034;DHT22;51601;51.356;12.458;2023-03-23T10:23:53;17.00;61.80
65034;DHT22;51601;51.356;12.458;2023-03-23T10:28:19;16.90;61.80
65034;DHT22;51601;51.356;12.458;2023-03-23T10:32:48;16.90;61.90
65034;DHT22;51601;51.356;12.458;2023-03-23T10:37:17;16.90;61.80
65034;DHT22;51601;51.356;12.458;2023-03-23T10:41:42;16.90;61.80
65034;DHT22;51601;51.356;12.458;2023-03-23T10:46:12;17.00;61.10
65034;DHT22;51601;51.356;12.458;2023-03-23T10:50:38;17.10;60.70
65034;DHT22;51601;51.356;12.458;2023-03-23T10:55:05;17.20;60.40
65034;DHT22;51601;51.356;12.458;2023-03-23T10:59:31;17.20;60.00
65034;DHT22;51601;51.356;12.458;2023-03-23T11:03:54;17.10;59.10
65034;DHT22;51601;51.356;12.458;2023-03-23T11:08:19;17.10;59.10
65034;DHT22;51601;51.356;12.458;2023-03-23T11:12:45;17.00;59.00
65034;DHT22;51601;51.356;12.458;2023-03-23T11:17:22;17.00;59.60
65034;DHT22;51601;51.356;12.458;2023-03-23T11:21:47;17.00;59.10
65034;DHT22;51601;51.356;12.458;2023-03-23T11:26:14;17.00;58.70
65034;DHT22;51601;51.356;12.458;2023-03-23T11:30:38;17.10;58.50
65034;DHT22;51601;51.356;12.458;2023-03-23T11:35:05;17.20;57.20
65034;DHT22;51601;51.356;12.458;2023-03-23T11:39:32;17.10;56.60
65034;DHT22;51601;51.356;12.458;2023-03-23T11:43:55;17.00;56.90
65034;DHT22;51601;51.356;12.458;2023-03-23T11:48:22;16.90;57.40
65034;DHT22;51601;51.356;12.458;2023-03-23T11:52:54;16.80;58.00
65034;DHT22;51601;51.356;12.458;2023-03-23T11:57:19;16.70;57.70
65034;DHT22;51601;51.356;12.458;2023-03-23T12:01:48;16.60;57.60
65034;DHT22;51601;51.356;12.458;2023-03-23T12:06:16;16.50;57.90
65034;DHT22;51601;51.356;12.458;2023-03-23T12:10:46;16.50;58.20
65034;DHT22;51601;51.356;12.458;2023-03-23T12:15:19;16.60;58.50
65034;DHT22;51601;51.356;12.458;2023-03-23T12:19:51;16.60;58.90
65034;DHT22;51601;51.356;12.458;2023-03-23T12:24:25;16.80;59.70
65034;DHT22;51601;51.356;12.458;2023-03-23T12:33:54;17.10;58.30
65034;DHT22;51601;51.356;12.458;2023-03-23T12:38:37;17.30;58.30
65034;DHT22;51601;51.356;12.458;2023-03-23T12:43:12;17.50;57.90
65034;DHT22;51601;51.356;12.458;2023-03-23T12:47:41;17.60;57.60
65034;DHT22;51601;51.356;12.458;2023-03-23T12:52:11;17.70;57.70
65034;DHT22;51601;51.356;12.458;2023-03-23T12:56:39;17.90;56.80
65034;DHT22;51601;51.356;12.458;2023-03-23T13:01:07;18.00;56.10
65034;DHT22;51601;51.356;12.458;2023-03-23T13:05:41;18.10;55.60
65034;DHT22;51601;51.356;12.458;2023-03-23T13:10:12;18.40;54.90
65034;DHT22;51601;51.356;12.458;2023-03-23T13:14:43;18.40;54.60
65034;DHT22;51601;51.356;12.458;2023-03-23T13:19:13;18.30;53.00
65034;DHT22;51601;51.356;12.458;2023-03-23T13:23:40;18.00;52.60
65034;DHT22;51601;51.356;12.458;2023-03-23T13:28:04;17.70;52.90
65034;DHT22;51601;51.356;12.458;2023-03-23T13:32:33;17.50;53.00
65034;DHT22;51601;51.356;12.458;2023-03-23T13:36:58;17.40;53.60
65034;DHT22;51601;51.356;12.458;2023-03-23T13:41:23;17.30;53.50
65034;DHT22;51601;51.356;12.458;2023-03-23T13:45:48;17.20;53.80
65034;DHT22;51601;51.356;12.458;2023-03-23T13:50:23;17.00;54.20
65034;DHT22;51601;51.356;12.458;2023-03-23T13:54:48;16.80;54.90
65034;DHT22;51601;51.356;12.458;2023-03-23T13:59:16;16.60;55.50
65034;DHT22;51601;51.356;12.458;2023-03-23T14:03:40;16.50;56.30
65034;DHT22;51601;51.356;12.458;2023-03-23T14:08:12;16.40;56.80
65034;DHT22;51601;51.356;12.458;2023-03-23T14:12:35;16.40;57.40
65034;DHT22;51601;51.356;12.458;2023-03-23T14:17:10;16.30;57.70
65034;DHT22;51601;51.356;12.458;2023-03-23T14:21:36;16.20;58.10
65034;DHT22;51601;51.356;12.458;2023-03-23T14:26:02;16.10;58.50
65034;DHT22;51601;51.356;12.458;2023-03-23T14:30:36;16.10;58.80
65034;DHT22;51601;51.356;12.458;2023-03-23T14:35:06;16.10;59.00
65034;DHT22;51601;51.356;12.458;2023-03-23T14:39:30;16.10;58.90
65034;DHT22;51601;51.356;12.458;2023-03-23T14:43:54;16.10;59.00
65034;DHT22;51601;51.356;12.458;2023-03-23T14:48:17;16.20;59.30
65034;DHT22;51601;51.356;12.458;2023-03-23T14:52:41;16.30;59.10
65034;DHT22;51601;51.356;12.458;2023-03-23T14:57:11;16.30;59.10
65034;DHT22;51601;51.356;12.458;2023-03-23T15:01:36;16.30;59.10
65034;DHT22;51601;51.356;12.458;2023-03-23T15:06:04;16.20;59.40
65034;DHT22;51601;51.356;12.458;2023-03-23T15:10:29;16.10;59.80
65034;DHT22;51601;51.356;12.458;2023-03-23T15:14:54;16.10;60.10
65034;DHT22;51601;51.356;12.458;2023-03-23T15:19:20;16.00;60.40
65034;DHT22;51601;51.356;12.458;2023-03-23T15:23:44;15.90;60.90
65034;DHT22;51601;51.356;12.458;2023-03-23T15:28:16;15.80;61.20
65034;DHT22;51601;51.356;12.458;2023-03-23T15:32:41;15.70;61.60
65034;DHT22;51601;51.356;12.458;2023-03-23T15:37:13;15.60;62.00
65034;DHT22;51601;51.356;12.458;2023-03-23T15:41:48;15.60;62.40
65034;DHT22;51601;51.356;12.458;2023-03-23T15:46:22;15.60;62.70
65034;DHT22;51601;51.356;12.458;2023-03-23T15:50:46;15.50;63.00
65034;DHT22;51601;51.356;12.458;2023-03-23T15:55:20;15.50;63.10
65034;DHT22;51601;51.356;12.458;2023-03-23T15:59:43;15.50;63.30
65034;DHT22;51601;51.356;12.458;2023-03-23T16:04:11;15.50;63.50
65034;DHT22;51601;51.356;12.458;2023-03-23T16:08:36;15.50;63.70
65034;DHT22;51601;51.356;12.458;2023-03-23T16:13:02;15.50;64.00
65034;DHT22;51601;51.356;12.458;2023-03-23T16:17:27;15.50;64.10
65034;DHT22;51601;51.356;12.458;2023-03-23T16:21:53;15.50;64.20
65034;DHT22;51601;51.356;12.458;2023-03-23T16:26:17;15.50;64.30
65034;DHT22;51601;51.356;12.458;2023-03-23T16:30:42;15.50;64.30
65034;DHT22;51601;51.356;12.458;2023-03-23T16:35:07;15.40;64.40
65034;DHT22;51601;51.356;12.458;2023-03-23T16:39:32;15.30;64.40
65034;DHT22;51601;51.356;12.458;2023-03-23T16:43:56;15.20;64.70
65034;DHT22;51601;51.356;12.458;2023-03-23T16:48:21;15.00;65.20
65034;DHT22;51601;51.356;12.458;2023-03-23T16:52:46;14.90;65.60
65034;DHT22;51601;51.356;12.458;2023-03-23T16:57:11;14.80;65.90
65034;DHT22;51601;51.356;12.458;2023-03-23T17:01:36;14.80;66.10
65034;DHT22;51601;51.356;12.458;2023-03-23T17:06:00;14.80;66.30
65034;DHT22;51601;51.356;12.458;2023-03-23T17:10:25;14.80;66.30
65034;DHT22;51601;51.356;12.458;2023-03-23T17:14:51;14.80;66.40
65034;DHT22;51601;51.356;12.458;2023-03-23T17:19:15;14.80;66.50
65034;DHT22;51601;51.356;12.458;2023-03-23T17:23:39;14.80;66.70
65034;DHT22;51601;51.356;12.458;2023-03-23T17:28:04;14.70;66.60
65034;DHT22;51601;51.356;12.458;2023-03-23T17:32:30;14.60;66.70
65034;DHT22;51601;51.356;12.458;2023-03-23T17:36:55;14.40;66.90
65034;DHT22;51601;51.356;12.458;2023-03-23T17:41:19;14.30;67.40
65034;DHT22;51601;51.356;12.458;2023-03-23T17:45:44;14.20;67.80
65034;DHT22;51601;51.356;12.458;2023-03-23T17:50:11;14.00;68.20
65034;DHT22;51601;51.356;12.458;2023-03-23T17:54:35;13.90;68.70
65034;DHT22;51601;51.356;12.458;2023-03-23T17:58:59;13.80;69.00
65034;DHT22;51601;51.356;12.458;2023-03-23T18:03:24;13.70;69.70
65034;DHT22;51601;51.356;12.458;2023-03-23T18:07:49;13.60;70.10
65034;DHT22;51601;51.356;12.458;2023-03-23T18:12:13;13.50;70.50
65034;DHT22;51601;51.356;12.458;2023-03-23T18:16:37;13.50;70.80
65034;DHT22;51601;51.356;12.458;2023-03-23T18:21:03;13.50;71.20
65034;DHT22;51601;51.356;12.458;2023-03-23T18:25:30;13.50;71.50
65034;DHT22;51601;51.356;12.458;2023-03-23T18:29:54;13.40;71.70
65034;DHT22;51601;51.356;12.458;2023-03-23T18:34:18;13.50;71.80
65034;DHT22;51601;51.356;12.458;2023-03-23T18:38:43;13.40;72.10
65034;DHT22;51601;51.356;12.458;2023-03-23T18:43:09;13.30;72.30
65034;DHT22;51601;51.356;12.458;2023-03-23T18:47:33;13.30;72.60
65034;DHT22;51601;51.356;12.458;2023-03-23T18:51:59;13.30;73.20
65034;DHT22;51601;51.356;12.458;2023-03-23T18:56:23;13.20;73.70
65034;DHT22;51601;51.356;12.458;2023-03-23T19:00:49;13.20;74.20
65034;DHT22;51601;51.356;12.458;2023-03-23T19:05:15;13.10;74.60
65034;DHT22;51601;51.356;12.458;2023-03-23T19:09:39;13.10;75.20
65034;DHT22;51601;51.356;12.458;2023-03-23T19:14:03;13.10;75.90
65034;DHT22;51601;51.356;12.458;2023-03-23T19:18:56;13.10;76.40
65034;DHT22;51601;51.356;12.458;2023-03-23T19:23:51;13.10;76.90
65034;DHT22;51601;51.356;12.458;2023-03-23T19:28:25;13.10;76.90
65034;DHT22;51601;51.356;12.458;2023-03-23T19:32:52;13.20;77.10
65034;DHT22;51601;51.356;12.458;2023-03-23T19:37:18;13.20;77.30
65034;DHT22;51601;51.356;12.458;2023-03-23T19:41:42;13.20;77.30
65034;DHT22;51601;51.356;12.458;2023-03-23T19:46:07;13.20;77.60
65034;DHT22;51601;51.356;12.458;2023-03-23T19:50:31;13.20;77.70
65034;DHT22;51601;51.356;12.458;2023-03-23T19:55:00;13.20;78.00
65034;DHT22;51601;51.356;12.458;2023-03-23T19:59:24;13.20;78.40
65034;DHT22;51601;51.356;12.458;2023-03-23T20:03:48;13.10;78.40
65034;DHT22;51601;51.356;12.458;2023-03-23T20:08:12;13.10;78.70
65034;DHT22;51601;51.356;12.458;2023-03-23T20:12:37;13.00;79.20
65034;DHT22;51601;51.356;12.458;2023-03-23T20:17:01;12.90;79.50
65034;DHT22;51601;51.356;12.458;2023-03-23T20:21:27;12.80;79.70
65034;DHT22;51601;51.356;12.458;2023-03-23T20:25:51;12.70;79.80
65034;DHT22;51601;51.356;12.458;2023-03-23T20:30:17;12.60;80.30
65034;DHT22;51601;51.356;12.458;2023-03-23T20:34:42;12.50;80.90
65034;DHT22;51601;51.356;12.458;2023-03-23T20:39:12;12.50;81.60
65034;DHT22;51601;51.356;12.458;2023-03-23T20:43:36;12.40;82.20
65034;DHT22;51601;51.356;12.458;2023-03-23T20:48:02;12.30;82.70
65034;DHT22;51601;51.356;12.458;2023-03-23T20:52:27;12.30;83.30
65034;DHT22;51601;51.356;12.458;2023-03-23T20:56:45;12.30;83.70
65034;DHT22;51601;51.356;12.458;2023-03-23T21:01:04;12.20;83.60
65034;DHT22;51601;51.356;12.458;2023-03-23T21:05:31;12.20;83.80
65034;DHT22;51601;51.356;12.458;2023-03-23T21:09:55;12.10;84.60
65034;DHT22;51601;51.356;12.458;2023-03-23T21:14:19;12.00;85.00
65034;DHT22;51601;51.356;12.458;2023-03-23T21:18:43;11.90;86.10
65034;DHT22;51601;51.356;12.458;2023-03-23T21:23:10;11.80;87.50
65034;DHT22;51601;51.356;12.458;2023-03-23T21:27:36;11.80;88.70
65034;DHT22;51601;51.356;12.458;2023-03-23T21:31:55;11.70;89.50
65034;DHT22;51601;51.356;12.458;2023-03-23T21:36:22;11.70;90.80
65034;DHT22;51601;51.356;12.458;2023-03-23T21:40:49;11.70;92.30
65034;DHT22;51601;51.356;12.458;2023-03-23T21:45:15;11.70;92.40
65034;DHT22;51601;51.356;12.458;2023-03-23T21:49:40;11.70;92.40
65034;DHT22;51601;51.356;12.458;2023-03-23T21:54:07;11.70;92.40
65034;DHT22;51601;51.356;12.458;2023-03-23T21:58:33;11.60;92.40
65034;DHT22;51601;51.356;12.458;2023-03-23T22:02:58;11.60;93.60
65034;DHT22;51601;51.356;12.458;2023-03-23T22:07:23;11.60;94.10
65034;DHT22;51601;51.356;12.458;2023-03-23T22:11:47;11.60;94.60
65034;DHT22;51601;51.356;12.458;2023-03-23T22:16:14;11.70;95.00
65034;DHT22;51601;51.356;12.458;2023-03-23T22:20:40;11.70;95.10
65034;DHT22;51601;51.356;12.458;2023-03-23T22:25:05;11.80;95.10
65034;DHT22;51601;51.356;12.458;2023-03-23T22:29:30;11.80;95.00
65034;DHT22;51601;51.356;12.458;2023-03-23T22:33:56;11.90;94.80
65034;DHT22;51601;51.356;12.458;2023-03-23T22:38:20;11.90;94.60
65034;DHT22;51601;51.356;12.458;2023-03-23T22:42:44;11.90;94.40
65034;DHT22;51601;51.356;12.458;2023-03-23T22:47:08;11.90;94.20
65034;DHT22;51601;51.356;12.458;2023-03-23T22:51:34;11.90;94.00
65034;DHT22;51601;51.356;12.458;2023-03-23T22:55:58;11.90;93.80
65034;DHT22;51601;51.356;12.458;2023-03-23T23:00:18;11.90;93.80
65034;DHT22;51601;51.356;12.458;2023-03-23T23:04:42;11.90;93.50
65034;DHT22;51601;51.356;12.458;2023-03-23T23:09:08;11.90;93.20
65034;DHT22;51601;51.356;12.458;2023-03-23T23:13:32;11.90;93.00
65034;DHT22;51601;51.356;12.458;2023-03-23T23:17:56;11.90;92.80
65034;DHT22;51601;51.356;12.458;2023-03-23T23:22:20;11.90;92.50
65034;DHT22;51601;51.356;12.458;2023-03-23T23:26:46;11.90;92.20
65034;DHT22;51601;51.356;12.458;2023-03-23T23:31:19;11.80;91.80
65034;DHT22;51601;51.356;12.458;2023-03-23T23:35:44;11.90;91.60
65034;DHT22;51601;51.356;12.458;2023-03-23T23:40:10;11.90;91.30
65034;DHT22;51601;51.356;12.458;2023-03-23T23:44:31;11.90;91.20
65034;DHT22;51601;51.356;12.458;2023-03-23T23:48:56;11.90;91.10
65034;DHT22;51601;51.356;12.458;2023-03-23T23:53:20;11.90;91.10
65034;DHT22;51601;51.356;12.458;2023-03-23T23:57:46;12.00;91.00
